createdAt,value
2018-11-05T00:02:23.234Z,66.53
2018-11-05T00:04:52.236Z,58.23
2018-11-05T00:07:20.673Z,62.63
2018-11-05T00:09:49.160Z,59.03
2018-11-05T00:12:18.246Z,56.70
2018-11-05T00:14:46.755Z,54.47
2018-11-05T00:17:15.923Z,61.60
2018-11-05T00:19:44.845Z,67.43
2018-11-05T00:22:13.503Z,63.07
2018-11-05T00:24:42.256Z,91.07
2018-11-05T00:27:10.738Z,78.17
2018-11-05T00:29:39.174Z,74.97
2018-11-05T00:32:08.162Z,86.63
2018-11-05T00:34:36.456Z,81.60
2018-11-05T00:37:05.138Z,75.33
2018-11-05T00:39:34.247Z,78.77
2018-11-05T00:42:02.771Z,77.33
2018-11-05T00:44:31.239Z,80.73
2018-11-05T00:46:59.932Z,73.23
2018-11-05T00:49:28.379Z,76.00
2018-11-05T00:51:57.633Z,84.53
2018-11-05T00:54:26.728Z,116.53
2018-11-05T00:56:55.194Z,90.50
2018-11-05T00:59:24.319Z,60.33
2018-11-05T01:01:53.367Z,60.60
2018-11-05T01:04:22.211Z,57.57
2018-11-05T01:06:51.064Z,74.07
2018-11-05T01:09:20.194Z,64.93
2018-11-05T01:11:48.591Z,64.23
2018-11-05T01:14:17.618Z,64.40
2018-11-05T01:16:46.063Z,63.33
2018-11-05T01:19:14.678Z,71.20
2018-11-05T01:21:43.114Z,65.90
2018-11-05T01:24:11.524Z,80.53
2018-11-05T01:26:40.118Z,79.83
2018-11-05T01:29:08.558Z,72.17
2018-11-05T01:31:37.996Z,77.53
2018-11-05T01:34:06.439Z,86.63
2018-11-05T01:36:35.181Z,76.40
2018-11-05T01:39:04.848Z,84.60
2018-11-05T01:41:34.142Z,75.07
2018-11-05T01:44:02.736Z,74.40
2018-11-05T01:46:31.579Z,66.73
2018-11-05T01:49:01.274Z,69.97
2018-11-05T01:51:29.808Z,70.87
2018-11-05T01:53:58.328Z,76.63
2018-11-05T01:56:27.055Z,69.47
2018-11-05T01:58:56.179Z,76.07
2018-11-05T02:01:24.868Z,69.40
2018-11-05T02:03:54.039Z,68.57
2018-11-05T02:06:22.432Z,74.60
2018-11-05T02:08:51.704Z,67.47
2018-11-05T02:11:20.187Z,75.10
2018-11-05T02:13:48.610Z,78.00
2018-11-05T02:16:17.097Z,71.60
2018-11-05T02:18:46.098Z,74.50
2018-11-05T02:21:15.335Z,77.93
2018-11-05T02:23:44.331Z,74.73
2018-11-05T02:26:13.156Z,79.50
2018-11-05T02:28:42.140Z,78.07
2018-11-05T02:31:10.549Z,75.00
2018-11-05T02:33:39.025Z,74.63
2018-11-05T02:36:07.755Z,95.50
2018-11-05T02:38:36.909Z,87.27
2018-11-05T02:41:05.633Z,90.50
2018-11-05T02:43:34.275Z,69.07
2018-11-05T02:46:03.749Z,95.13
2018-11-05T02:48:32.428Z,85.47
2018-11-05T02:51:02.024Z,89.53
2018-11-05T02:53:30.492Z,101.93
2018-11-05T02:55:59.198Z,111.40
2018-11-05T02:58:28.352Z,74.87
2018-11-05T03:00:58.316Z,71.40
2018-11-05T03:03:26.956Z,67.83
2018-11-05T03:05:55.495Z,69.93
2018-11-05T03:08:23.984Z,77.13
2018-11-05T03:10:52.999Z,79.73
2018-11-05T03:13:22.116Z,274.13
2018-11-05T03:15:50.521Z,181.00
2018-11-05T03:18:18.935Z,224.73
2018-11-05T03:20:47.724Z,121.30
2018-11-05T03:23:16.199Z,108.00
2018-11-05T03:25:46.258Z,75.17
2018-11-05T03:28:14.634Z,88.03
2018-11-05T03:30:44.289Z,79.07
2018-11-05T03:33:13.168Z,80.67
2018-11-05T03:35:42.007Z,88.83
2018-11-05T03:38:11.877Z,75.23
2018-11-05T03:40:41.019Z,68.60
2018-11-05T03:43:09.659Z,57.47
2018-11-05T03:45:38.183Z,64.60
2018-11-05T03:48:07.202Z,88.40
2018-11-05T03:50:35.913Z,57.90
2018-11-05T03:53:05.040Z,56.23
2018-11-05T03:55:34.553Z,61.10
2018-11-05T03:58:03.874Z,70.67
2018-11-05T04:00:32.961Z,64.20
2018-11-05T04:03:02.508Z,50.87
2018-11-05T04:05:31.006Z,48.47
2018-11-05T04:07:59.697Z,56.33
2018-11-05T04:10:29.024Z,51.10
2018-11-05T04:12:59.266Z,57.00
2018-11-05T04:15:28.723Z,55.77
2018-11-05T04:17:57.198Z,59.60
2018-11-05T04:20:25.821Z,54.60
2018-11-05T04:22:54.969Z,57.00
2018-11-05T04:25:23.978Z,64.37
2018-11-05T04:27:52.748Z,62.23
2018-11-05T04:30:23.397Z,57.63
2018-11-05T04:32:52.868Z,64.47
2018-11-05T04:35:21.574Z,56.80
2018-11-05T04:37:50.696Z,71.70
2018-11-05T04:40:19.578Z,91.03
2018-11-05T04:42:49.189Z,68.73
2018-11-05T04:45:18.214Z,73.17
2018-11-05T04:47:47.512Z,65.03
2018-11-05T04:50:16.963Z,83.47
2018-11-05T04:52:46.400Z,69.80
2018-11-05T04:55:15.354Z,66.90
2018-11-05T04:57:44.167Z,67.87
2018-11-05T05:00:15.750Z,68.17
2018-11-05T05:02:44.572Z,61.23
2018-11-05T05:05:14.927Z,79.13
2018-11-05T05:07:44.389Z,64.00
2018-11-05T05:10:13.404Z,62.80
2018-11-05T05:12:44.573Z,71.03
2018-11-05T05:15:14.116Z,68.73
2018-11-05T05:17:43.169Z,74.20
2018-11-05T05:20:14.429Z,67.03
2018-11-05T05:22:44.610Z,79.33
2018-11-05T05:25:13.726Z,63.00
2018-11-05T05:27:42.866Z,63.70
2018-11-05T05:30:15.546Z,60.63
2018-11-05T05:32:45.401Z,68.17
2018-11-05T05:35:14.081Z,64.73
2018-11-05T05:37:43.132Z,56.13
2018-11-05T05:40:11.945Z,57.27
2018-11-05T05:42:41.649Z,54.70
2018-11-05T05:45:11.648Z,70.43
2018-11-05T05:47:41.629Z,65.57
2018-11-05T05:50:13.563Z,66.83
2018-11-05T05:52:43.007Z,57.10
2018-11-05T05:55:12.078Z,58.97
2018-11-05T05:57:40.906Z,70.93
2018-11-05T06:00:13.016Z,62.13
2018-11-05T06:02:41.516Z,68.57
2018-11-05T06:05:11.342Z,74.40
2018-11-05T06:07:40.620Z,74.80
2018-11-05T06:10:11.029Z,80.70
2018-11-05T06:12:40.563Z,79.17
2018-11-05T06:15:13.334Z,95.43
2018-11-05T06:17:42.779Z,90.20
2018-11-05T06:20:14.394Z,95.17
2018-11-05T06:22:43.731Z,105.67
2018-11-05T06:25:12.481Z,96.10
2018-11-05T06:27:40.942Z,72.33
2018-11-05T06:30:14.097Z,65.30
2018-11-05T06:32:43.636Z,68.37
2018-11-05T06:35:13.404Z,81.57
2018-11-05T06:37:42.334Z,119.90
2018-11-05T06:40:12.890Z,161.07
2018-11-05T06:42:43.491Z,84.27
2018-11-05T06:45:15.377Z,118.77
2018-11-05T06:47:45.358Z,102.83
2018-11-05T06:50:18.071Z,109.50
2018-11-05T06:52:47.847Z,94.03
2018-11-05T06:55:16.910Z,109.17
2018-11-05T06:57:46.781Z,95.90
2018-11-05T07:00:20.884Z,133.63
2018-11-05T07:02:50.075Z,87.97
2018-11-05T07:05:19.195Z,121.67
2018-11-05T07:07:47.926Z,124.07
2018-11-05T07:10:17.082Z,103.33
2018-11-05T07:12:46.245Z,105.87
2018-11-05T07:15:16.762Z,83.70
2018-11-05T07:17:46.895Z,150.00
2018-11-05T07:20:16.607Z,127.27
2018-11-05T07:22:46.282Z,108.77
2018-11-05T07:25:15.881Z,101.67
2018-11-05T07:27:45.930Z,123.93
2018-11-05T07:30:20.397Z,105.57
2018-11-05T07:32:49.939Z,123.90
2018-11-05T07:35:18.657Z,101.00
2018-11-05T07:37:47.104Z,90.63
2018-11-05T07:40:16.944Z,92.33
2018-11-05T07:42:46.155Z,121.37
2018-11-05T07:45:16.796Z,87.73
2018-11-05T07:47:45.877Z,95.40
2018-11-05T07:50:16.515Z,85.43
2018-11-05T07:52:44.887Z,74.50
2018-11-05T07:55:14.930Z,77.67
2018-11-05T07:57:45.538Z,85.60
2018-11-05T08:00:19.617Z,68.57
2018-11-05T08:02:49.351Z,47.57
2018-11-05T08:05:18.757Z,45.37
2018-11-05T08:07:47.540Z,62.20
2018-11-05T08:10:16.193Z,50.17
2018-11-05T08:12:45.196Z,120.87
2018-11-05T08:15:18.202Z,65.60
2018-11-05T08:17:48.198Z,103.20
2018-11-05T08:20:16.882Z,68.63
2018-11-05T08:22:45.557Z,62.00
2018-11-05T08:25:15.157Z,70.30
2018-11-05T08:27:43.846Z,68.60
2018-11-05T08:30:15.583Z,86.77
2018-11-05T08:32:44.047Z,60.27
2018-11-05T08:35:13.727Z,57.83
2018-11-05T08:37:43.075Z,58.27
2018-11-05T08:40:18.096Z,56.90
2018-11-05T08:42:48.091Z,58.57
2018-11-05T08:45:17.723Z,53.90
2018-11-05T08:47:46.290Z,50.47
2018-11-05T08:50:17.397Z,51.93
2018-11-05T08:52:46.043Z,45.80
2018-11-05T08:55:20.028Z,40.07
2018-11-05T08:57:48.554Z,36.37
2018-11-05T09:00:22.538Z,30.27
2018-11-05T09:02:52.030Z,27.07
2018-11-05T09:05:20.855Z,21.43
2018-11-05T09:07:51.410Z,28.53
2018-11-05T09:10:20.140Z,33.80
2018-11-05T09:12:48.423Z,31.03
2018-11-05T09:15:18.698Z,28.83
2018-11-05T09:17:47.590Z,28.13
2018-11-05T09:20:17.067Z,22.87
2018-11-05T09:22:46.715Z,27.83
2018-11-05T09:25:16.416Z,17.43
2018-11-05T09:27:45.439Z,18.40
2018-11-05T09:30:18.798Z,24.33
2018-11-05T09:32:47.619Z,18.13
2018-11-05T09:35:16.132Z,19.20
2018-11-05T09:37:44.624Z,12.47
2018-11-05T09:40:16.867Z,18.23
2018-11-05T09:42:46.204Z,16.63
2018-11-05T09:45:20.186Z,15.83
2018-11-05T09:47:48.931Z,15.30
2018-11-05T09:50:18.712Z,15.37
2018-11-05T09:52:48.210Z,16.50
2018-11-05T09:55:17.659Z,19.93
2018-11-05T09:57:46.330Z,14.80
2018-11-05T10:00:18.033Z,15.00
2018-11-05T10:02:50.718Z,16.87
2018-11-05T10:05:20.157Z,18.77
2018-11-05T10:07:49.013Z,59.53
2018-11-05T10:10:18.257Z,28.70
2018-11-05T10:12:46.762Z,16.57
2018-11-05T10:15:16.050Z,16.63
2018-11-05T10:17:45.027Z,17.80
2018-11-05T10:20:16.117Z,19.63
2018-11-05T10:22:45.216Z,39.87
2018-11-05T10:25:14.507Z,20.50
2018-11-05T10:27:42.790Z,19.47
2018-11-05T10:30:13.836Z,19.70
2018-11-05T10:32:42.864Z,19.00
2018-11-05T10:35:13.416Z,18.87
2018-11-05T10:37:42.024Z,18.43
2018-11-05T10:40:12.954Z,14.10
2018-11-05T10:42:42.759Z,18.17
2018-11-05T10:45:13.073Z,15.30
2018-11-05T10:47:42.395Z,13.57
2018-11-05T10:50:12.989Z,12.80
2018-11-05T10:52:43.194Z,16.87
2018-11-05T10:55:11.603Z,13.07
2018-11-05T10:57:41.012Z,17.87
2018-11-05T11:00:19.238Z,13.60
2018-11-05T11:02:51.938Z,13.90
2018-11-05T11:05:20.896Z,13.67
2018-11-05T11:07:49.579Z,13.77
2018-11-05T11:10:18.203Z,14.20
2018-11-05T11:12:46.998Z,16.17
2018-11-05T11:15:15.776Z,14.70
2018-11-05T11:17:44.491Z,17.67
2018-11-05T11:20:13.930Z,16.13
2018-11-05T11:22:42.321Z,18.47
2018-11-05T11:25:11.510Z,18.27
2018-11-05T11:27:40.418Z,26.87
2018-11-05T11:30:11.510Z,18.10
2018-11-05T11:32:40.332Z,17.27
2018-11-05T11:35:09.529Z,18.70
2018-11-05T11:37:39.481Z,18.33
2018-11-05T11:40:14.364Z,16.70
2018-11-05T11:42:44.675Z,16.80
2018-11-05T11:45:14.452Z,19.47
2018-11-05T11:47:42.957Z,14.97
2018-11-05T11:50:13.007Z,19.37
2018-11-05T11:52:41.746Z,23.87
2018-11-05T11:55:12.903Z,16.40
2018-11-05T11:57:41.686Z,18.47
2018-11-05T12:00:16.300Z,20.20
2018-11-05T12:02:45.442Z,25.20
2018-11-05T12:05:14.021Z,21.30
2018-11-05T12:07:42.661Z,19.30
2018-11-05T12:10:15.895Z,12.73
2018-11-05T12:12:44.814Z,32.07
2018-11-05T12:15:14.784Z,16.20
2018-11-05T12:17:43.978Z,15.70
2018-11-05T12:20:15.126Z,19.43
2018-11-05T12:22:44.556Z,16.63
2018-11-05T12:25:13.200Z,11.20
2018-11-05T12:27:42.372Z,25.60
2018-11-05T12:30:16.245Z,18.70
2018-11-05T12:32:46.346Z,12.90
2018-11-05T12:35:14.736Z,10.63
2018-11-05T12:37:47.518Z,12.97
2018-11-05T12:40:17.007Z,11.37
2018-11-05T12:42:46.695Z,11.60
2018-11-05T12:45:15.204Z,13.70
2018-11-05T12:47:43.668Z,12.00
2018-11-05T12:50:15.363Z,14.83
2018-11-05T12:52:46.803Z,11.53
2018-11-05T12:55:15.327Z,11.03
2018-11-05T12:57:44.096Z,9.40
2018-11-05T13:00:16.568Z,9.17
2018-11-05T13:02:49.361Z,9.83
2018-11-05T13:05:17.942Z,10.23
2018-11-05T13:07:46.416Z,10.20
2018-11-05T13:10:14.973Z,11.23
2018-11-05T13:12:43.369Z,9.93
2018-11-05T13:15:12.217Z,11.23
2018-11-05T13:17:41.616Z,12.57
2018-11-05T13:20:15.963Z,11.10
2018-11-05T13:22:44.826Z,10.97
2018-11-05T13:25:13.584Z,10.13
2018-11-05T13:27:43.865Z,11.43
2018-11-05T13:30:13.110Z,13.47
2018-11-05T13:32:42.133Z,12.17
2018-11-05T13:35:14.398Z,14.27
2018-11-05T13:37:43.360Z,13.53
2018-11-05T13:40:17.009Z,11.60
2018-11-05T13:42:47.173Z,16.97
2018-11-05T13:45:17.148Z,15.30
2018-11-05T13:47:46.523Z,17.10
2018-11-05T13:50:15.044Z,21.87
2018-11-05T13:52:43.640Z,15.90
2018-11-05T13:55:13.587Z,19.47
2018-11-05T13:57:43.783Z,16.63
2018-11-05T14:00:14.975Z,17.40
2018-11-05T14:02:43.788Z,21.13
2018-11-05T14:05:12.987Z,23.87
2018-11-05T14:07:42.087Z,20.33
2018-11-05T14:10:14.491Z,25.90
2018-11-05T14:12:44.146Z,20.13
2018-11-05T14:15:12.650Z,19.63
2018-11-05T14:17:41.878Z,16.10
2018-11-05T14:20:11.330Z,21.57
2018-11-05T14:22:40.162Z,24.60
2018-11-05T14:25:12.383Z,22.03
2018-11-05T14:27:41.809Z,26.97
2018-11-05T14:30:12.233Z,17.53
2018-11-05T14:32:41.944Z,17.40
2018-11-05T14:35:10.429Z,26.33
2018-11-05T14:37:39.164Z,24.70
2018-11-05T14:40:12.224Z,19.87
2018-11-05T14:42:40.648Z,20.40
2018-11-05T14:45:11.573Z,24.87
2018-11-05T14:47:41.130Z,19.30
2018-11-05T14:50:12.498Z,25.07
2018-11-05T14:52:41.126Z,26.80
2018-11-05T14:55:12.055Z,28.80
2018-11-05T14:57:40.693Z,30.00
2018-11-05T15:00:14.238Z,35.83
2018-11-05T15:02:43.704Z,21.47
2018-11-05T15:05:13.146Z,21.23
2018-11-05T15:07:43.442Z,35.30
2018-11-05T15:10:13.819Z,22.83
2018-11-05T15:12:42.492Z,28.33
2018-11-05T15:15:12.831Z,29.00
2018-11-05T15:17:42.705Z,34.23
2018-11-05T15:20:14.074Z,26.80
2018-11-05T15:22:43.657Z,27.93
2018-11-05T15:25:12.647Z,49.73
2018-11-05T15:27:41.325Z,45.13
2018-11-05T15:30:17.793Z,38.50
2018-11-05T15:32:46.543Z,34.40
2018-11-05T15:35:15.294Z,37.10
2018-11-05T15:37:44.414Z,27.83
2018-11-05T15:40:17.861Z,30.50
2018-11-05T15:42:46.459Z,37.67
2018-11-05T15:45:16.691Z,33.90
2018-11-05T15:47:46.010Z,50.33
2018-11-05T15:50:16.177Z,47.10
2018-11-05T15:52:45.141Z,31.43
2018-11-05T15:55:13.438Z,27.90
2018-11-05T15:57:42.552Z,34.00
2018-11-05T16:00:17.028Z,30.60
2018-11-05T16:02:49.089Z,37.83
2018-11-05T16:05:18.270Z,32.40
2018-11-05T16:07:47.398Z,28.17
2018-11-05T16:10:16.317Z,27.97
2018-11-05T16:12:44.791Z,29.73
2018-11-05T16:15:13.943Z,29.90
2018-11-05T16:17:42.475Z,34.27
2018-11-05T16:20:15.726Z,36.13
2018-11-05T16:22:44.766Z,44.17
2018-11-05T16:25:13.340Z,38.00
2018-11-05T16:27:42.143Z,33.30
2018-11-05T16:30:13.103Z,27.83
2018-11-05T16:32:42.429Z,35.40
2018-11-05T16:35:12.049Z,32.43
2018-11-05T16:37:41.987Z,33.97
2018-11-05T16:40:13.540Z,43.23
2018-11-05T16:42:42.903Z,40.97
2018-11-05T16:45:11.539Z,39.73
2018-11-05T16:47:40.792Z,43.20
2018-11-05T16:50:14.811Z,42.53
2018-11-05T16:52:43.737Z,43.30
2018-11-05T16:55:13.541Z,35.97
2018-11-05T16:57:42.706Z,49.23
2018-11-05T17:00:11.942Z,47.80
2018-11-05T17:02:41.627Z,35.60
2018-11-05T17:05:09.901Z,40.93
2018-11-05T17:07:39.224Z,40.17
2018-11-05T17:10:10.610Z,38.70
2018-11-05T17:12:39.288Z,43.43
2018-11-05T17:15:09.818Z,39.80
2018-11-05T17:17:38.775Z,48.27
2018-11-05T17:20:10.812Z,38.60
2018-11-05T17:22:40.838Z,39.37
2018-11-05T17:25:10.386Z,37.20
2018-11-05T17:27:40.067Z,40.70
2018-11-05T17:30:17.756Z,47.93
2018-11-05T17:32:54.539Z,61.73
2018-11-05T17:35:23.105Z,49.93
2018-11-05T17:37:53.796Z,45.70
2018-11-05T17:40:23.518Z,51.83
2018-11-05T17:42:52.748Z,44.80
2018-11-05T17:45:22.618Z,55.60
2018-11-05T17:47:51.138Z,48.77
2018-11-05T17:50:22.773Z,65.73
2018-11-05T17:52:52.039Z,61.43
2018-11-05T17:55:20.764Z,73.03
2018-11-05T17:57:50.510Z,71.40
2018-11-05T18:00:20.649Z,70.27
2018-11-05T18:02:49.414Z,61.70
2018-11-05T18:05:22.329Z,60.93
2018-11-05T18:07:51.114Z,84.97
2018-11-05T18:10:20.021Z,83.00
2018-11-05T18:12:48.690Z,86.73
2018-11-05T18:15:17.411Z,81.33
2018-11-05T18:17:47.166Z,83.00
2018-11-05T18:20:16.924Z,78.83
2018-11-05T18:22:45.916Z,62.90
2018-11-05T18:25:16.058Z,60.37
2018-11-05T18:27:44.783Z,63.73
2018-11-05T18:30:14.005Z,65.43
2018-11-05T18:32:42.758Z,59.60
2018-11-05T18:35:12.652Z,75.77
2018-11-05T18:37:42.389Z,76.10
2018-11-05T18:40:13.160Z,79.03
2018-11-05T18:42:42.499Z,84.07
2018-11-05T18:45:12.014Z,90.07
2018-11-05T18:47:40.556Z,74.17
2018-11-05T18:50:12.135Z,81.00
2018-11-05T18:52:40.920Z,80.40
2018-11-05T18:55:12.084Z,76.63
2018-11-05T18:57:41.416Z,75.37
2018-11-05T19:00:18.150Z,77.23
2018-11-05T19:02:47.908Z,87.33
2018-11-05T19:05:16.930Z,82.60
2018-11-05T19:07:47.184Z,82.53
2018-11-05T19:10:17.005Z,98.43
2018-11-05T19:12:47.078Z,93.23
2018-11-05T19:15:17.287Z,93.63
2018-11-05T19:17:47.686Z,129.67
2018-11-05T19:20:18.173Z,88.93
2018-11-05T19:22:47.713Z,89.60
2018-11-05T19:25:16.915Z,84.60
2018-11-05T19:27:45.727Z,78.10
2018-11-05T19:30:18.427Z,96.40
2018-11-05T19:32:49.923Z,96.83
2018-11-05T19:35:20.930Z,79.13
2018-11-05T19:37:50.233Z,87.57
2018-11-05T19:40:19.934Z,76.57
2018-11-05T19:42:50.030Z,104.00
2018-11-05T19:45:20.267Z,86.97
2018-11-05T19:47:51.519Z,75.33
2018-11-05T19:50:23.681Z,80.43
2018-11-05T19:52:54.479Z,93.33
2018-11-05T19:55:23.506Z,89.43
2018-11-05T19:57:53.249Z,86.10
2018-11-05T20:00:26.560Z,118.47
2018-11-05T20:02:57.258Z,81.60
2018-11-05T20:05:26.263Z,90.40
2018-11-05T20:07:55.909Z,92.70
2018-11-05T20:10:27.771Z,95.23
2018-11-05T20:12:56.329Z,85.33
2018-11-05T20:15:26.208Z,94.77
2018-11-05T20:18:01.569Z,88.63
2018-11-05T20:20:30.378Z,85.50
2018-11-05T20:22:59.447Z,84.20
2018-11-05T20:25:28.136Z,76.47
2018-11-05T20:27:56.524Z,91.07
2018-11-05T20:30:26.979Z,89.97
2018-11-05T20:33:00.099Z,93.73
2018-11-05T20:35:28.651Z,95.83
2018-11-05T20:37:57.570Z,95.30
2018-11-05T20:40:26.370Z,83.40
2018-11-05T20:42:54.906Z,94.40
2018-11-05T20:45:24.160Z,81.33
2018-11-05T20:47:52.703Z,81.73
2018-11-05T20:50:21.488Z,93.30
2018-11-05T20:52:50.404Z,82.93
2018-11-05T20:55:19.201Z,92.43
2018-11-05T20:57:48.140Z,93.93
2018-11-05T21:00:20.187Z,89.87
2018-11-05T21:02:49.752Z,88.20
2018-11-05T21:05:19.080Z,82.50
2018-11-05T21:07:47.965Z,82.43
2018-11-05T21:10:18.510Z,99.43
2018-11-05T21:12:47.630Z,83.07
2018-11-05T21:15:17.436Z,63.37
2018-11-05T21:17:47.041Z,64.13
2018-11-05T21:20:15.820Z,76.30
2018-11-05T21:22:45.295Z,78.43
2018-11-05T21:25:13.601Z,76.20
2018-11-05T21:27:42.994Z,71.13
2018-11-05T21:30:15.534Z,81.97
2018-11-05T21:32:44.660Z,70.17
2018-11-05T21:35:14.794Z,78.90
2018-11-05T21:37:43.747Z,70.10
2018-11-05T21:40:13.606Z,70.07
2018-11-05T21:42:42.186Z,66.20
2018-11-05T21:45:14.664Z,59.47
2018-11-05T21:47:43.884Z,70.70
2018-11-05T21:50:15.074Z,60.87
2018-11-05T21:52:44.105Z,81.53
2018-11-05T21:55:13.503Z,70.57
2018-11-05T21:57:43.414Z,66.60
2018-11-05T22:00:15.019Z,62.57
2018-11-05T22:02:47.631Z,59.30
2018-11-05T22:05:16.502Z,64.00
2018-11-05T22:07:45.699Z,67.30
2018-11-05T22:10:14.345Z,71.00
2018-11-05T22:12:43.466Z,71.17
2018-11-05T22:15:12.122Z,67.10
2018-11-05T22:17:40.798Z,62.00
2018-11-05T22:20:10.996Z,64.87
2018-11-05T22:22:39.628Z,54.60
2018-11-05T22:25:09.108Z,69.20
2018-11-05T22:27:38.650Z,57.70
2018-11-05T22:30:08.668Z,61.73
2018-11-05T22:32:38.202Z,66.73
2018-11-05T22:35:07.450Z,63.87
2018-11-05T22:37:37.434Z,73.37
2018-11-05T22:40:07.957Z,56.93
2018-11-05T22:42:36.972Z,58.97
2018-11-05T22:45:05.781Z,67.00
2018-11-05T22:47:34.362Z,59.23
2018-11-05T22:50:02.799Z,66.17
2018-11-05T22:52:31.921Z,66.93
2018-11-05T22:55:00.619Z,65.20
2018-11-05T22:57:29.069Z,57.03
2018-11-05T22:59:57.544Z,61.87
2018-11-05T23:02:25.987Z,59.30
2018-11-05T23:04:54.673Z,60.13
2018-11-05T23:07:23.058Z,59.77
2018-11-05T23:09:51.669Z,63.03
2018-11-05T23:12:20.137Z,55.80
2018-11-05T23:14:51.032Z,74.07
2018-11-05T23:17:19.805Z,71.13
2018-11-05T23:19:48.513Z,63.20
2018-11-05T23:22:17.276Z,83.20
2018-11-05T23:24:45.739Z,66.80
2018-11-05T23:27:14.113Z,68.00
2018-11-05T23:29:43.139Z,71.33
2018-11-05T23:32:11.582Z,58.30
2018-11-05T23:34:39.982Z,68.93
2018-11-05T23:37:08.721Z,68.13
2018-11-05T23:39:37.764Z,71.57
2018-11-05T23:42:06.239Z,66.00
2018-11-05T23:44:34.832Z,68.20
2018-11-05T23:47:03.268Z,66.97
2018-11-05T23:49:31.942Z,68.40
2018-11-05T23:52:00.425Z,64.90
2018-11-05T23:54:29.179Z,61.70
2018-11-05T23:56:57.880Z,65.57
2018-11-05T23:59:26.619Z,61.30
